sensor_id;sensor_type;location;lat;lon;timestamp;P1;durP1;ratioP1;P2;durP2;ratioP2
39340;SDS011;25059;52.132;21.062;2023-08-12T05:34:11;0.20;;;0.20;;
39340;SDS011;25059;52.132;21.062;2023-08-12T05:36:58;0.10;;;0.10;;
39340;SDS011;25059;52.132;21.062;2023-08-12T05:39:42;0.10;;;0.10;;
39340;SDS011;25059;52.132;21.062;2023-08-12T05:42:28;0.10;;;0.10;;
39340;SDS011;25059;52.132;21.062;2023-08-12T05:45:12;0.10;;;0.10;;
39340;SDS011;25059;52.132;21.062;2023-08-12T05:47:57;0.10;;;0.10;;
39340;SDS011;25059;52.132;21.062;2023-08-12T05:50:42;0.10;;;0.10;;
39340;SDS011;25059;52.132;21.062;2023-08-12T05:53:27;0.10;;;0.10;;
39340;SDS011;25059;52.132;21.062;2023-08-12T05:56:12;0.20;;;0.20;;
39340;SDS011;25059;52.132;21.062;2023-08-12T05:58:57;0.10;;;0.10;;
39340;SDS011;25059;52.132;21.062;2023-08-12T06:01:42;0.20;;;0.20;;
39340;SDS011;25059;52.132;21.062;2023-08-12T06:04:26;0.10;;;0.10;;
39340;SDS011;25059;52.132;21.062;2023-08-12T06:07:11;0.13;;;0.13;;
39340;SDS011;25059;52.132;21.062;2023-08-12T06:09:56;0.10;;;0.10;;
39340;SDS011;25059;52.132;21.062;2023-08-12T06:12:41;0.10;;;0.10;;
39340;SDS011;25059;52.132;21.062;2023-08-12T06:15:25;0.10;;;0.10;;
39340;SDS011;25059;52.132;21.062;2023-08-12T06:18:10;0.10;;;0.10;;
39340;SDS011;25059;52.132;21.062;2023-08-12T06:20:54;0.10;;;0.10;;
39340;SDS011;25059;52.132;21.062;2023-08-12T06:23:39;0.10;;;0.10;;
39340;SDS011;25059;52.132;21.062;2023-08-12T06:26:23;0.10;;;0.10;;
39340;SDS011;25059;52.132;21.062;2023-08-12T06:29:08;0.10;;;0.10;;
39340;SDS011;25059;52.132;21.062;2023-08-12T06:31:53;0.20;;;0.20;;
39340;SDS011;25059;52.132;21.062;2023-08-12T06:34:37;0.10;;;0.10;;
39340;SDS011;25059;52.132;21.062;2023-08-12T06:37:22;0.20;;;0.20;;
39340;SDS011;25059;52.132;21.062;2023-08-12T06:40:07;0.10;;;0.10;;
39340;SDS011;25059;52.132;21.062;2023-08-12T06:42:52;0.10;;;0.10;;
39340;SDS011;25059;52.132;21.062;2023-08-12T06:45:37;0.10;;;0.10;;
39340;SDS011;25059;52.132;21.062;2023-08-12T06:48:21;0.10;;;0.10;;
39340;SDS011;25059;52.132;21.062;2023-08-12T06:51:06;0.10;;;0.10;;
39340;SDS011;25059;52.132;21.062;2023-08-12T06:53:54;0.10;;;0.10;;
39340;SDS011;25059;52.132;21.062;2023-08-12T06:56:39;0.13;;;0.13;;
39340;SDS011;25059;52.132;21.062;2023-08-12T06:59:23;0.10;;;0.10;;
39340;SDS011;25059;52.132;21.062;2023-08-12T07:02:08;0.10;;;0.10;;
39340;SDS011;25059;52.132;21.062;2023-08-12T07:04:52;0.00;;;0.00;;
39340;SDS011;25059;52.132;21.062;2023-08-12T07:07:36;0.00;;;0.00;;
39340;SDS011;25059;52.132;21.062;2023-08-12T07:10:22;0.00;;;0.00;;
39340;SDS011;25059;52.132;21.062;2023-08-12T07:13:06;0.10;;;0.10;;
39340;SDS011;25059;52.132;21.062;2023-08-12T07:15:50;0.10;;;0.10;;
39340;SDS011;25059;52.132;21.062;2023-08-12T07:18:34;0.10;;;0.10;;
39340;SDS011;25059;52.132;21.062;2023-08-12T07:21:19;0.10;;;0.10;;
39340;SDS011;25059;52.132;21.062;2023-08-12T07:27:19;0.10;;;0.10;;
39340;SDS011;25059;52.132;21.062;2023-08-12T07:30:03;0.10;;;0.10;;
39340;SDS011;25059;52.132;21.062;2023-08-12T07:32:48;0.10;;;0.10;;
39340;SDS011;25059;52.132;21.062;2023-08-12T07:35:33;0.10;;;0.10;;
39340;SDS011;25059;52.132;21.062;2023-08-12T07:38:18;0.10;;;0.10;;
39340;SDS011;25059;52.132;21.062;2023-08-12T07:41:21;0.13;;;0.13;;
39340;SDS011;25059;52.132;21.062;2023-08-12T07:44:08;0.10;;;0.10;;
39340;SDS011;25059;52.132;21.062;2023-08-12T07:46:52;0.10;;;0.10;;
39340;SDS011;25059;52.132;21.062;2023-08-12T07:49:37;0.10;;;0.10;;
39340;SDS011;25059;52.132;21.062;2023-08-12T07:52:22;0.05;;;0.05;;
39340;SDS011;25059;52.132;21.062;2023-08-12T07:55:08;0.10;;;0.10;;
39340;SDS011;25059;52.132;21.062;2023-08-12T07:57:54;0.10;;;0.10;;
39340;SDS011;25059;52.132;21.062;2023-08-12T08:00:40;0.10;;;0.10;;
39340;SDS011;25059;52.132;21.062;2023-08-12T08:03:25;0.10;;;0.10;;
39340;SDS011;25059;52.132;21.062;2023-08-12T08:06:13;0.10;;;0.10;;
39340;SDS011;25059;52.132;21.062;2023-08-12T08:08:58;0.10;;;0.10;;
39340;SDS011;25059;52.132;21.062;2023-08-12T08:11:46;0.15;;;0.15;;
39340;SDS011;25059;52.132;21.062;2023-08-12T08:14:30;0.17;;;0.17;;
39340;SDS011;25059;52.132;21.062;2023-08-12T08:17:16;0.10;;;0.10;;
39340;SDS011;25059;52.132;21.062;2023-08-12T08:20:01;0.10;;;0.10;;
39340;SDS011;25059;52.132;21.062;2023-08-12T08:22:46;0.10;;;0.10;;
39340;SDS011;25059;52.132;21.062;2023-08-12T08:25:31;0.10;;;0.10;;
39340;SDS011;25059;52.132;21.062;2023-08-12T08:28:16;0.10;;;0.10;;
39340;SDS011;25059;52.132;21.062;2023-08-12T08:31:01;0.10;;;0.10;;
39340;SDS011;25059;52.132;21.062;2023-08-12T08:33:46;0.10;;;0.10;;
39340;SDS011;25059;52.132;21.062;2023-08-12T08:36:36;0.10;;;0.10;;
39340;SDS011;25059;52.132;21.062;2023-08-12T08:39:22;0.10;;;0.10;;
39340;SDS011;25059;52.132;21.062;2023-08-12T08:42:07;0.10;;;0.10;;
39340;SDS011;25059;52.132;21.062;2023-08-12T08:45:00;0.10;;;0.10;;
39340;SDS011;25059;52.132;21.062;2023-08-12T08:47:46;0.10;;;0.10;;
39340;SDS011;25059;52.132;21.062;2023-08-12T08:50:32;0.10;;;0.10;;
39340;SDS011;25059;52.132;21.062;2023-08-12T08:53:16;0.10;;;0.10;;
39340;SDS011;25059;52.132;21.062;2023-08-12T08:56:04;0.10;;;0.10;;
39340;SDS011;25059;52.132;21.062;2023-08-12T08:58:49;0.10;;;0.10;;
39340;SDS011;25059;52.132;21.062;2023-08-12T09:01:33;0.10;;;0.10;;
39340;SDS011;25059;52.132;21.062;2023-08-12T09:04:20;0.20;;;0.20;;
39340;SDS011;25059;52.132;21.062;2023-08-12T09:07:06;0.10;;;0.10;;
39340;SDS011;25059;52.132;21.062;2023-08-12T09:09:52;0.10;;;0.10;;
39340;SDS011;25059;52.132;21.062;2023-08-12T09:12:37;0.10;;;0.10;;
39340;SDS011;25059;52.132;21.062;2023-08-12T09:15:22;0.10;;;0.10;;
39340;SDS011;25059;52.132;21.062;2023-08-12T09:18:07;0.10;;;0.10;;
39340;SDS011;25059;52.132;21.062;2023-08-12T09:20:51;0.03;;;0.03;;
39340;SDS011;25059;52.132;21.062;2023-08-12T09:23:37;0.10;;;0.10;;
39340;SDS011;25059;52.132;21.062;2023-08-12T09:26:21;0.10;;;0.10;;
39340;SDS011;25059;52.132;21.062;2023-08-12T09:29:06;0.10;;;0.10;;
39340;SDS011;25059;52.132;21.062;2023-08-12T09:31:50;0.00;;;0.00;;
39340;SDS011;25059;52.132;21.062;2023-08-12T09:34:35;0.10;;;0.10;;
39340;SDS011;25059;52.132;21.062;2023-08-12T09:37:20;0.10;;;0.10;;
39340;SDS011;25059;52.132;21.062;2023-08-12T09:40:05;0.10;;;0.10;;
39340;SDS011;25059;52.132;21.062;2023-08-12T09:42:50;0.10;;;0.10;;
39340;SDS011;25059;52.132;21.062;2023-08-12T09:48:56;0.10;;;0.10;;
39340;SDS011;25059;52.132;21.062;2023-08-12T09:51:41;0.10;;;0.10;;
39340;SDS011;25059;52.132;21.062;2023-08-12T09:54:26;0.10;;;0.10;;
39340;SDS011;25059;52.132;21.062;2023-08-12T09:57:11;0.10;;;0.10;;
39340;SDS011;25059;52.132;21.062;2023-08-12T09:59:57;0.10;;;0.10;;
39340;SDS011;25059;52.132;21.062;2023-08-12T10:02:44;0.10;;;0.10;;
39340;SDS011;25059;52.132;21.062;2023-08-12T10:05:31;0.10;;;0.10;;
39340;SDS011;25059;52.132;21.062;2023-08-12T10:08:18;0.10;;;0.10;;
39340;SDS011;25059;52.132;21.062;2023-08-12T10:11:03;0.10;;;0.10;;
39340;SDS011;25059;52.132;21.062;2023-08-12T10:13:47;0.10;;;0.10;;
39340;SDS011;25059;52.132;21.062;2023-08-12T10:16:33;0.10;;;0.10;;
39340;SDS011;25059;52.132;21.062;2023-08-12T10:19:19;0.10;;;0.10;;
39340;SDS011;25059;52.132;21.062;2023-08-12T10:22:05;0.10;;;0.10;;
39340;SDS011;25059;52.132;21.062;2023-08-12T10:24:50;0.10;;;0.10;;
39340;SDS011;25059;52.132;21.062;2023-08-12T10:27:35;0.10;;;0.10;;
39340;SDS011;25059;52.132;21.062;2023-08-12T10:30:20;0.05;;;0.05;;
39340;SDS011;25059;52.132;21.062;2023-08-12T10:33:04;0.13;;;0.13;;
39340;SDS011;25059;52.132;21.062;2023-08-12T10:35:50;0.20;;;0.20;;
39340;SDS011;25059;52.132;21.062;2023-08-12T10:38:34;0.30;;;0.30;;
39340;SDS011;25059;52.132;21.062;2023-08-12T10:41:20;0.32;;;0.32;;
39340;SDS011;25059;52.132;21.062;2023-08-12T10:44:05;0.50;;;0.50;;
39340;SDS011;25059;52.132;21.062;2023-08-12T10:46:50;0.50;;;0.50;;
39340;SDS011;25059;52.132;21.062;2023-08-12T10:49:38;0.60;;;0.60;;
39340;SDS011;25059;52.132;21.062;2023-08-12T10:52:30;0.60;;;0.60;;
39340;SDS011;25059;52.132;21.062;2023-08-12T10:55:16;0.95;;;0.95;;
39340;SDS011;25059;52.132;21.062;2023-08-12T10:58:01;1.00;;;1.00;;
39340;SDS011;25059;52.132;21.062;2023-08-12T11:00:54;1.30;;;1.30;;
39340;SDS011;25059;52.132;21.062;2023-08-12T11:03:41;1.92;;;1.83;;
39340;SDS011;25059;52.132;21.062;2023-08-12T11:06:26;2.45;;;2.35;;
39340;SDS011;25059;52.132;21.062;2023-08-12T11:09:12;2.80;;;2.70;;
39340;SDS011;25059;52.132;21.062;2023-08-12T11:11:56;3.22;;;3.03;;
39340;SDS011;25059;52.132;21.062;2023-08-12T11:14:53;2.90;;;2.75;;
39340;SDS011;25059;52.132;21.062;2023-08-12T11:17:39;3.22;;;3.03;;
39340;SDS011;25059;52.132;21.062;2023-08-12T11:20:27;3.38;;;3.17;;
39340;SDS011;25059;52.132;21.062;2023-08-12T11:23:12;3.95;;;3.70;;
39340;SDS011;25059;52.132;21.062;2023-08-12T11:25:56;2.80;;;2.70;;
39340;SDS011;25059;52.132;21.062;2023-08-12T11:28:42;3.50;;;3.30;;
39340;SDS011;25059;52.132;21.062;2023-08-12T11:31:28;3.40;;;3.20;;
39340;SDS011;25059;52.132;21.062;2023-08-12T11:34:15;3.33;;;3.13;;
39340;SDS011;25059;52.132;21.062;2023-08-12T11:37:02;3.30;;;3.10;;
39340;SDS011;25059;52.132;21.062;2023-08-12T11:39:47;3.10;;;2.90;;
39340;SDS011;25059;52.132;21.062;2023-08-12T11:42:32;2.78;;;2.67;;
39340;SDS011;25059;52.132;21.062;2023-08-12T11:45:18;2.50;;;2.40;;
39340;SDS011;25059;52.132;21.062;2023-08-12T11:48:04;2.20;;;2.10;;
39340;SDS011;25059;52.132;21.062;2023-08-12T11:50:50;1.63;;;1.63;;
39340;SDS011;25059;52.132;21.062;2023-08-12T11:53:34;1.50;;;1.50;;
39340;SDS011;25059;52.132;21.062;2023-08-12T11:56:19;1.60;;;1.60;;
39340;SDS011;25059;52.132;21.062;2023-08-12T11:59:05;2.20;;;2.10;;
39340;SDS011;25059;52.132;21.062;2023-08-12T12:01:49;2.00;;;1.90;;
